Alden Manor, New York
Current Conditions -  °F | °C
As of 9:51 AM on Friday 31 Oct 2014 (Local Time) from KJFK Reporting Station
Broken Clouds Broken Clouds  
Wind Chill: 51°   Ceiling: 5000
Heat Index: 51°   Visibility: 10mi
Dew Point: 34°   Wind: 9mph
Humidity: 52%   Direction: 360°N
Pressure: 30.01"   Gusts: NA
Location:  40.7013°N, 73.7074°W
Report Text: KJFK 311351Z 36008KT 10SM FEW020 BKN050 BKN160 11/01 A3001 RMK AO2 SLP163 T01060011
Loading
Personal Weather Stations






























Interactive Weather Map
Tropical Storm Tracking
New forecast layout! Learn more

10-Day Weather Forecast

Advertisements
Track Severe Weather on mobile